createdAt,value
2022-08-05T00:00:46.322Z,98849.09
2022-08-05T00:01:49.693Z,98861.28
2022-08-05T00:02:52.397Z,98866.75
2022-08-05T00:03:54.910Z,98864.47
2022-08-05T00:04:59.591Z,98871.22
2022-08-05T00:06:22.153Z,98876.25
2022-08-05T00:07:59.231Z,98885.19
2022-08-05T00:08:47.500Z,98887.94
2022-08-05T00:09:49.806Z,98888.41
2022-08-05T00:10:52.082Z,98885.16
2022-08-05T00:11:56.133Z,98892.50
2022-08-05T00:13:02.253Z,98891.66
2022-08-05T00:14:12.767Z,98896.16
2022-08-05T00:15:55.109Z,98891.34
2022-08-05T00:16:53.094Z,98898.50
2022-08-05T00:17:56.070Z,98895.09
2022-08-05T00:18:58.350Z,98894.72
2022-08-05T00:20:02.708Z,98902.66
2022-08-05T00:21:06.796Z,98904.50
2022-08-05T00:22:11.499Z,98901.81
2022-08-05T00:23:13.939Z,98905.78
2022-08-05T00:24:19.281Z,98899.91
2022-08-05T00:25:27.279Z,98906.00
2022-08-05T00:26:50.733Z,98900.47
2022-08-05T00:27:54.303Z,98905.88
2022-08-05T00:28:57.817Z,98906.28
2022-08-05T00:30:03.292Z,98909.28
2022-08-05T00:31:07.678Z,98907.09
2022-08-05T00:32:15.637Z,98902.94
2022-08-05T00:34:54.152Z,98902.63
2022-08-05T00:34:55.859Z,98905.50
2022-08-05T00:36:16.139Z,98909.88
2022-08-05T00:37:26.592Z,98897.50
2022-08-05T00:38:39.685Z,98909.75
2022-08-05T00:39:44.245Z,98909.44
2022-08-05T00:41:01.440Z,98912.63
2022-08-05T00:42:04.058Z,98913.50
2022-08-05T00:43:07.406Z,98916.69
2022-08-05T00:44:10.034Z,98921.72
2022-08-05T00:45:13.601Z,98909.81
2022-08-05T00:46:15.949Z,98919.09
2022-08-05T00:47:18.328Z,98919.09
2022-08-05T00:48:27.695Z,98913.56
2022-08-05T00:49:51.086Z,98913.41
2022-08-05T00:50:54.248Z,98920.97
2022-08-05T00:51:56.480Z,98918.81
2022-08-05T00:52:59.767Z,98918.66
2022-08-05T00:54:03.091Z,98915.59
2022-08-05T00:55:06.001Z,98916.78
2022-08-05T00:56:08.667Z,98926.19
2022-08-05T00:57:10.943Z,98921.66
2022-08-05T00:58:16.743Z,98923.19
2022-08-05T00:59:21.218Z,98911.25
2022-08-05T01:00:26.037Z,98913.13
2022-08-05T01:01:42.637Z,98913.13
2022-08-05T01:02:50.807Z,98914.78
2022-08-05T01:03:53.561Z,98920.81
2022-08-05T01:04:55.940Z,98917.47
2022-08-05T01:05:58.634Z,98914.63
2022-08-05T01:07:01.006Z,98925.53
2022-08-05T01:08:40.148Z,98925.69
2022-08-05T01:09:30.473Z,98921.34
2022-08-05T01:10:56.569Z,98925.84
2022-08-05T01:12:17.867Z,98929.56
2022-08-05T01:13:57.410Z,98928.88
2022-08-05T01:15:06.165Z,98937.94
2022-08-05T01:16:44.139Z,98933.75
2022-08-05T01:17:55.675Z,98935.75
2022-08-05T01:19:16.287Z,98927.88
2022-08-05T01:20:36.579Z,98931.53
2022-08-05T01:21:51.531Z,98929.22
2022-08-05T01:22:59.053Z,98930.53
2022-08-05T01:24:22.636Z,98919.97
2022-08-05T01:25:41.136Z,98927.16
2022-08-05T01:26:53.469Z,98916.41
2022-08-05T01:28:14.016Z,98923.63
2022-08-05T01:29:40.686Z,98921.63
2022-08-05T01:30:55.455Z,98922.22
2022-08-05T01:32:00.512Z,98920.06
2022-08-05T01:33:08.249Z,98927.41
2022-08-05T01:34:17.724Z,98920.38
2022-08-05T01:35:51.132Z,98916.69
2022-08-05T01:36:53.769Z,98915.16
2022-08-05T01:37:58.245Z,98909.13
2022-08-05T01:39:02.646Z,98906.56
2022-08-05T01:40:06.722Z,98896.13
2022-08-05T01:41:11.285Z,98893.13
2022-08-05T01:42:20.624Z,98890.59
2022-08-05T01:43:24.368Z,98893.59
2022-08-05T01:44:35.285Z,98912.06
2022-08-05T01:45:43.204Z,98922.09
2022-08-05T01:46:46.688Z,98913.75
2022-08-05T01:47:54.315Z,98928.22
2022-08-05T01:48:58.930Z,98925.84
2022-08-05T01:50:04.629Z,98918.47
2022-08-05T01:51:12.092Z,98914.63
2022-08-05T01:52:18.036Z,98909.56
2022-08-05T01:53:54.890Z,98914.78
2022-08-05T01:54:52.073Z,98905.25
2022-08-05T01:56:00.259Z,98904.34
2022-08-05T01:58:29.163Z,98895.44
2022-08-05T01:58:45.136Z,98899.00
2022-08-05T01:59:58.336Z,98896.59
2022-08-05T02:01:03.228Z,98906.16
2022-08-05T02:02:07.240Z,98907.16
2022-08-05T02:03:28.972Z,98917.16
2022-08-05T02:04:36.705Z,98924.22
2022-08-05T02:05:45.184Z,98919.66
2022-08-05T02:06:50.875Z,98913.94
2022-08-05T02:07:56.298Z,98913.94
2022-08-05T02:09:04.953Z,98906.81
2022-08-05T02:10:08.765Z,98911.03
2022-08-05T02:11:15.001Z,98904.53
2022-08-05T02:12:44.567Z,98903.44
2022-08-05T02:14:05.727Z,98925.75
2022-08-05T02:15:25.743Z,98924.25
2022-08-05T02:16:45.915Z,98925.91
2022-08-05T02:18:33.038Z,98923.22
2022-08-05T02:19:34.251Z,98920.53
2022-08-05T02:20:52.113Z,98924.75
2022-08-05T02:22:04.117Z,98920.91
2022-08-05T02:23:13.505Z,98920.84
2022-08-05T02:24:23.246Z,98922.66
2022-08-05T02:25:33.241Z,98927.19
2022-08-05T02:26:53.927Z,98933.44
2022-08-05T02:28:00.358Z,98936.72
2022-08-05T02:29:04.154Z,98947.00
2022-08-05T02:30:10.284Z,98943.78
2022-08-05T02:31:21.296Z,98930.16
2022-08-05T02:32:29.237Z,98940.56
2022-08-05T02:33:39.538Z,98941.28
2022-08-05T02:34:42.527Z,98936.38
2022-08-05T02:35:56.343Z,98947.09
2022-08-05T02:37:04.918Z,98942.25
2022-08-05T02:38:09.475Z,98954.97
2022-08-05T02:39:13.172Z,98962.81
2022-08-05T02:40:20.614Z,98972.00
2022-08-05T02:41:28.880Z,98962.66
2022-08-05T02:42:52.757Z,98962.88
2022-08-05T02:44:05.839Z,98959.78
2022-08-05T02:45:16.174Z,98964.19
2022-08-05T02:46:27.637Z,98977.25
2022-08-05T02:47:58.691Z,98976.38
2022-08-05T02:48:58.068Z,98982.09
2022-08-05T02:50:01.744Z,98971.53
2022-08-05T02:51:04.611Z,98979.31
2022-08-05T02:52:26.173Z,98972.78
2022-08-05T02:53:39.198Z,98968.72
2022-08-05T02:54:50.700Z,98959.16
2022-08-05T02:56:00.275Z,98966.75
2022-08-05T02:58:11.988Z,98978.78
2022-08-05T02:58:34.475Z,98969.56
2022-08-05T02:59:50.210Z,98984.34
2022-08-05T03:00:55.861Z,98973.81
2022-08-05T03:02:00.727Z,98982.78
2022-08-05T03:03:10.261Z,98981.25
2022-08-05T03:04:15.726Z,98980.63
2022-08-05T03:05:21.866Z,98977.84
2022-08-05T03:06:56.940Z,98974.72
2022-08-05T03:08:08.484Z,98973.19
2022-08-05T03:09:15.834Z,98956.09
2022-08-05T03:10:30.070Z,98961.69
2022-08-05T03:11:56.873Z,98951.09
2022-08-05T03:12:55.158Z,98943.00
2022-08-05T03:14:02.628Z,98948.38
2022-08-05T03:15:09.162Z,98948.00
2022-08-05T03:16:11.923Z,98944.59
2022-08-05T03:17:18.135Z,98948.56
2022-08-05T03:18:24.651Z,98942.25
2022-08-05T03:19:34.391Z,98939.19
2022-08-05T03:20:39.011Z,98938.41
2022-08-05T03:21:50.879Z,98941.97
2022-08-05T03:22:57.673Z,98936.81
2022-08-05T03:24:00.967Z,98930.38
2022-08-05T03:25:33.532Z,98932.28
2022-08-05T03:26:30.955Z,98938.78
2022-08-05T03:27:58.892Z,98925.38
2022-08-05T03:28:57.283Z,98928.06
2022-08-05T03:30:08.099Z,98929.66
2022-08-05T03:31:18.259Z,98923.34
2022-08-05T03:32:34.993Z,98924.38
2022-08-05T03:33:49.350Z,98923.66
2022-08-05T03:34:54.054Z,98927.94
2022-08-05T03:35:57.544Z,98926.63
2022-08-05T03:37:00.503Z,98927.00
2022-08-05T03:38:04.304Z,98922.34
2022-08-05T03:39:08.103Z,98922.34
2022-08-05T03:40:24.434Z,98925.56
2022-08-05T03:41:45.149Z,98922.22
2022-08-05T03:42:51.920Z,98945.41
2022-08-05T03:44:09.024Z,98945.25
2022-08-05T03:45:21.636Z,98953.28
2022-08-05T03:46:26.811Z,98950.59
2022-08-05T03:47:35.514Z,98968.81
2022-08-05T03:48:45.314Z,98972.34
2022-08-05T03:49:52.011Z,98974.88
2022-08-05T03:52:37.937Z,98983.03
2022-08-05T03:55:06.805Z,98982.97
2022-08-05T03:55:51.847Z,99004.16
2022-08-05T03:56:04.393Z,99005.56
2022-08-05T03:56:54.474Z,99007.91
2022-08-05T03:58:03.253Z,99022.09
2022-08-05T03:59:16.549Z,99016.84
2022-08-05T04:00:26.699Z,99030.75
2022-08-05T04:01:32.273Z,99037.31
2022-08-05T04:02:51.932Z,99040.16
2022-08-05T04:04:10.118Z,99033.34
2022-08-05T04:05:14.846Z,99037.63
2022-08-05T04:06:18.831Z,99034.00
2022-08-05T04:07:24.963Z,99021.38
2022-08-05T04:08:36.390Z,99027.00
2022-08-05T04:09:53.422Z,99030.31
2022-08-05T04:10:57.665Z,99034.66
2022-08-05T04:12:00.025Z,99020.50
2022-08-05T04:13:04.104Z,99042.06
2022-08-05T04:14:07.306Z,99050.97
2022-08-05T04:15:10.730Z,99044.91
2022-08-05T04:16:25.005Z,99056.47
2022-08-05T04:17:55.743Z,99057.03
2022-08-05T04:18:54.743Z,99059.28
2022-08-05T04:19:59.935Z,99054.22
2022-08-05T04:21:06.833Z,99053.66
2022-08-05T04:22:12.195Z,99052.00
2022-08-05T04:23:16.049Z,99051.53
2022-08-05T04:24:22.497Z,99051.25
2022-08-05T04:25:56.414Z,99055.03
2022-08-05T04:26:47.771Z,99082.03
2022-08-05T04:27:58.844Z,99085.25
2022-08-05T04:29:07.231Z,99081.63
2022-08-05T04:30:10.269Z,99090.25
2022-08-05T04:31:12.648Z,99107.75
2022-08-05T04:32:20.003Z,99108.59
2022-08-05T04:33:54.782Z,99113.06
2022-08-05T04:34:57.625Z,99116.19
2022-08-05T04:36:16.502Z,99129.69
2022-08-05T04:37:22.964Z,99129.69
2022-08-05T04:38:45.559Z,99123.16
2022-08-05T04:39:53.430Z,99123.13
2022-08-05T04:40:58.071Z,99121.00
2022-08-05T04:42:01.802Z,99117.44
2022-08-05T04:43:06.097Z,99121.22
2022-08-05T04:44:14.051Z,99128.91
2022-08-05T04:45:23.047Z,99122.56
2022-08-05T04:46:40.818Z,99128.63
2022-08-05T04:47:49.391Z,99141.56
2022-08-05T04:48:52.377Z,99153.91
2022-08-05T04:50:01.769Z,99162.25
2022-08-05T04:51:13.407Z,99179.34
2022-08-05T04:52:16.262Z,99181.88
2022-08-05T04:53:19.350Z,99192.06
2022-08-05T04:54:26.928Z,99198.09
2022-08-05T04:55:49.824Z,99204.47
2022-08-05T04:56:59.681Z,99224.13
2022-08-05T04:58:02.198Z,99223.56
2022-08-05T04:59:22.205Z,99229.34
2022-08-05T05:00:27.245Z,99236.09
2022-08-05T05:02:06.043Z,99228.00
2022-08-05T05:02:52.306Z,99216.00
2022-08-05T05:03:54.913Z,99222.66
2022-08-05T05:05:01.825Z,99221.94
2022-08-05T05:06:39.693Z,99228.84
2022-08-05T05:07:29.660Z,99239.56
2022-08-05T05:08:36.665Z,99247.41
2022-08-05T05:09:45.387Z,99239.25
2022-08-05T05:10:56.386Z,99248.66
2022-08-05T05:12:02.807Z,99254.91
2022-08-05T05:13:05.386Z,99247.53
2022-08-05T05:14:08.649Z,99261.19
2022-08-05T05:15:11.119Z,99249.59
2022-08-05T05:16:13.506Z,99253.25
2022-08-05T05:17:23.461Z,99250.13
2022-08-05T05:18:28.701Z,99249.28
2022-08-05T05:19:37.110Z,99247.25
2022-08-05T05:20:46.911Z,99241.25
2022-08-05T05:21:52.144Z,99235.84
2022-08-05T05:22:59.759Z,99235.56
2022-08-05T05:24:09.206Z,99230.16
2022-08-05T05:25:16.158Z,99225.81
2022-08-05T05:26:19.933Z,99220.72
2022-08-05T05:27:44.587Z,99221.81
2022-08-05T05:28:48.336Z,99219.03
2022-08-05T05:30:04.838Z,99221.63
2022-08-05T05:31:08.971Z,99227.16
2022-08-05T05:32:12.473Z,99232.19
2022-08-05T05:33:23.412Z,99227.25
2022-08-05T05:34:27.289Z,99231.75
2022-08-05T05:35:31.607Z,99223.13
2022-08-05T05:36:37.328Z,99217.69
2022-08-05T05:37:59.465Z,99219.19
2022-08-05T05:39:03.796Z,99219.31
2022-08-05T05:40:07.675Z,99222.91
2022-08-05T05:41:09.994Z,99224.97
2022-08-05T05:42:14.731Z,99207.81
2022-08-05T05:43:27.896Z,99218.13
2022-08-05T05:44:44.384Z,99217.72
2022-08-05T05:45:48.574Z,99214.59
2022-08-05T05:46:51.123Z,99221.47
2022-08-05T05:48:06.534Z,99213.38
2022-08-05T05:49:22.589Z,99208.09
2022-08-05T05:50:25.921Z,99204.59
2022-08-05T05:51:28.346Z,99206.63
2022-08-05T05:52:37.981Z,99218.81
2022-08-05T05:53:45.930Z,99223.31
2022-08-05T05:55:07.381Z,99210.28
2022-08-05T05:56:15.569Z,99221.13
2022-08-05T05:57:42.910Z,99213.94
2022-08-05T05:58:50.908Z,99224.69
2022-08-05T05:59:54.601Z,99222.94
2022-08-05T06:00:56.891Z,99225.09
2022-08-05T06:01:59.383Z,99228.78
2022-08-05T06:03:03.224Z,99231.66
2022-08-05T06:04:25.613Z,99225.09
2022-08-05T06:05:28.096Z,99233.06
2022-08-05T06:06:34.710Z,99221.50
2022-08-05T06:07:42.098Z,99228.88
2022-08-05T06:09:00.310Z,99221.00
2022-08-05T06:10:10.185Z,99205.75
2022-08-05T06:11:13.459Z,99219.38
2022-08-05T06:12:15.875Z,99211.34
2022-08-05T06:13:18.245Z,99216.44
2022-08-05T06:14:20.624Z,99208.88
2022-08-05T06:15:23.783Z,99205.28
2022-08-05T06:16:29.754Z,99202.09
2022-08-05T06:17:53.159Z,99194.81
2022-08-05T06:18:56.780Z,99189.78
2022-08-05T06:20:04.561Z,99191.41
2022-08-05T06:21:08.058Z,99180.44
2022-08-05T06:22:26.279Z,99183.34
2022-08-05T06:23:32.096Z,99189.13
2022-08-05T06:24:46.661Z,99192.94
2022-08-05T06:26:12.237Z,99190.66
2022-08-05T06:28:09.209Z,99195.22
2022-08-05T06:28:36.827Z,99197.69
2022-08-05T06:29:46.932Z,99197.00
2022-08-05T06:30:54.445Z,99197.53
2022-08-05T06:31:57.680Z,99201.94
2022-08-05T06:33:02.311Z,99202.94
2022-08-05T06:34:07.373Z,99199.75
2022-08-05T06:35:22.052Z,99220.88
2022-08-05T06:36:53.602Z,99211.38
2022-08-05T06:37:59.017Z,99213.84
2022-08-05T06:39:03.597Z,99227.00
2022-08-05T06:40:06.284Z,99223.28
2022-08-05T06:41:08.573Z,99232.19
2022-08-05T06:42:16.001Z,99223.94
2022-08-05T06:43:57.835Z,99231.94
2022-08-05T06:44:40.618Z,99228.38
2022-08-05T06:46:03.924Z,99220.38
2022-08-05T06:47:06.859Z,99214.97
2022-08-05T06:48:52.565Z,99223.84
2022-08-05T06:50:01.864Z,99223.78
2022-08-05T06:50:57.592Z,99222.94
2022-08-05T06:52:00.069Z,99219.72
2022-08-05T06:53:03.979Z,99222.47
2022-08-05T06:54:21.973Z,99226.81
2022-08-05T06:55:28.274Z,99233.94
2022-08-05T06:56:38.728Z,99238.19
2022-08-05T06:58:03.355Z,99238.50
2022-08-05T06:59:08.490Z,99239.53
2022-08-05T07:00:12.543Z,99251.63
2022-08-05T07:01:15.001Z,99246.44
2022-08-05T07:02:23.580Z,99257.34
2022-08-05T07:03:32.798Z,99255.88
2022-08-05T07:04:35.969Z,99265.16
2022-08-05T07:05:41.110Z,99263.22
2022-08-05T07:06:43.784Z,99268.53
2022-08-05T07:07:48.857Z,99265.84
2022-08-05T07:08:51.967Z,99259.56
2022-08-05T07:09:58.437Z,99266.59
2022-08-05T07:11:00.906Z,99257.13
2022-08-05T07:12:04.687Z,99272.63
2022-08-05T07:13:58.488Z,99267.19
2022-08-05T07:15:09.182Z,99278.59
2022-08-05T07:17:59.330Z,99282.47
2022-08-05T07:17:59.466Z,99269.66
2022-08-05T07:19:05.581Z,99283.31
2022-08-05T07:20:32.333Z,99282.13
2022-08-05T07:22:00.230Z,99278.59
2022-08-05T07:22:54.885Z,99278.78
2022-08-05T07:23:57.353Z,99271.00
2022-08-05T07:25:22.046Z,99272.00
2022-08-05T07:26:26.652Z,99277.91
2022-08-05T07:27:57.250Z,99283.47
2022-08-05T07:28:51.625Z,99296.97
2022-08-05T07:30:24.007Z,99291.59
2022-08-05T07:31:17.400Z,99295.09
2022-08-05T07:32:26.199Z,99300.03
2022-08-05T07:33:36.949Z,99297.47
2022-08-05T07:34:42.275Z,99294.28
2022-08-05T07:36:03.643Z,99295.63
2022-08-05T07:37:11.466Z,99293.44
2022-08-05T07:38:26.434Z,99295.97
2022-08-05T07:40:27.081Z,99300.00
2022-08-05T07:41:04.519Z,99290.38
2022-08-05T07:42:31.512Z,99289.22
2022-08-05T07:43:36.838Z,99300.50
2022-08-05T07:44:39.668Z,99288.03
2022-08-05T07:45:58.249Z,99293.09
2022-08-05T07:47:00.924Z,99288.53
2022-08-05T07:48:11.490Z,99289.72
2022-08-05T07:49:15.824Z,99286.44
2022-08-05T07:50:24.977Z,99282.84
2022-08-05T07:51:53.797Z,99282.97
2022-08-05T07:52:57.214Z,99281.28
2022-08-05T07:53:59.648Z,99288.38
2022-08-05T07:55:04.577Z,99290.75
2022-08-05T07:57:00.667Z,99283.66
2022-08-05T07:57:58.778Z,99273.81
2022-08-05T07:59:05.268Z,99262.03
2022-08-05T08:00:14.573Z,99274.06
2022-08-05T08:01:17.200Z,99268.78
2022-08-05T08:02:26.860Z,99272.00
2022-08-05T08:03:44.083Z,99276.06
2022-08-05T08:04:48.761Z,99266.41
2022-08-05T08:05:52.466Z,99276.72
2022-08-05T08:06:55.925Z,99269.88
2022-08-05T08:08:00.622Z,99264.16
2022-08-05T08:09:03.546Z,99261.03
2022-08-05T08:10:08.125Z,99261.94
2022-08-05T08:11:10.626Z,99258.09
2022-08-05T08:12:33.266Z,99268.56
2022-08-05T08:13:49.315Z,99266.41
2022-08-05T08:14:52.120Z,99265.59
2022-08-05T08:16:35.755Z,99255.84
2022-08-05T08:17:17.108Z,99256.88
2022-08-05T08:18:20.849Z,99256.75
2022-08-05T08:20:43.943Z,99260.22
2022-08-05T08:21:02.918Z,99260.50
2022-08-05T08:22:09.123Z,99252.00
2022-08-05T08:24:00.969Z,99253.16
2022-08-05T08:24:50.965Z,99252.03
2022-08-05T08:26:00.435Z,99249.78
2022-08-05T08:27:06.932Z,99228.50
2022-08-05T08:28:18.303Z,99223.53
2022-08-05T08:30:05.620Z,99228.84
2022-08-05T08:30:54.807Z,99220.34
2022-08-05T08:31:57.757Z,99211.81
2022-08-05T08:33:04.495Z,99213.66
2022-08-05T08:34:10.455Z,99221.25
2022-08-05T08:35:13.407Z,99215.41
2022-08-05T08:36:38.918Z,99206.19
2022-08-05T08:37:39.756Z,99196.56
2022-08-05T08:38:53.237Z,99196.97
2022-08-05T08:39:56.027Z,99204.13
2022-08-05T08:40:59.912Z,99201.56
2022-08-05T08:42:04.561Z,99195.97
2022-08-05T08:44:54.621Z,99185.28
2022-08-05T08:45:18.391Z,99179.75
2022-08-05T08:45:59.645Z,99182.97
2022-08-05T08:47:04.015Z,99181.22
2022-08-05T08:48:41.621Z,99176.03
2022-08-05T08:50:05.787Z,99172.75
2022-08-05T08:52:01.674Z,99152.94
2022-08-05T08:52:47.374Z,99163.53
2022-08-05T08:53:54.796Z,99155.81
2022-08-05T08:54:57.812Z,99164.41
2022-08-05T08:56:06.009Z,99165.31
2022-08-05T08:57:11.588Z,99157.06
2022-08-05T08:58:16.900Z,99156.75
2022-08-05T08:59:21.062Z,99155.63
2022-08-05T09:00:24.031Z,99173.25
2022-08-05T09:01:28.700Z,99161.91
2022-08-05T09:02:33.402Z,99161.50
2022-08-05T09:03:44.965Z,99160.44
2022-08-05T09:05:16.482Z,99146.13
2022-08-05T09:06:11.629Z,99138.75
2022-08-05T09:07:28.546Z,99146.72
2022-08-05T09:08:31.683Z,99147.44
2022-08-05T09:09:35.891Z,99149.47
2022-08-05T09:10:42.023Z,99146.69
2022-08-05T09:11:50.724Z,99146.09
2022-08-05T09:12:55.132Z,99141.44
2022-08-05T09:14:09.264Z,99140.75
2022-08-05T09:15:20.774Z,99140.53
2022-08-05T09:16:26.968Z,99147.94
2022-08-05T09:17:41.327Z,99138.31
2022-08-05T09:18:45.823Z,99144.97
2022-08-05T09:20:01.896Z,99133.84
2022-08-05T09:21:11.755Z,99149.72
2022-08-05T09:22:31.598Z,99149.25
2022-08-05T09:23:37.472Z,99149.19
2022-08-05T09:24:58.411Z,99156.69
2022-08-05T09:26:26.620Z,99159.09
2022-08-05T09:28:05.540Z,99156.13
2022-08-05T09:29:04.378Z,99153.56
2022-08-05T09:30:07.325Z,99152.66
2022-08-05T09:31:43.136Z,99150.88
2022-08-05T09:32:41.398Z,99165.75
2022-08-05T09:33:54.261Z,99158.97
2022-08-05T09:34:58.423Z,99158.31
2022-08-05T09:36:16.445Z,99160.44
2022-08-05T09:38:16.987Z,99154.38
2022-08-05T09:38:59.805Z,99163.91
2022-08-05T09:40:02.688Z,99164.50
2022-08-05T09:41:07.621Z,99152.28
2022-08-05T09:42:13.464Z,99154.38
2022-08-05T09:43:41.024Z,99164.91
2022-08-05T09:44:50.484Z,99168.28
2022-08-05T09:46:06.617Z,99170.31
2022-08-05T09:47:22.288Z,99163.28
2022-08-05T09:48:30.379Z,99165.72
2022-08-05T09:49:54.924Z,99154.69
2022-08-05T09:51:15.884Z,99157.25
2022-08-05T09:52:24.063Z,99147.94
2022-08-05T09:53:54.414Z,99144.97
2022-08-05T09:55:56.875Z,99156.97
2022-08-05T09:56:36.664Z,99153.66
2022-08-05T09:57:43.211Z,99149.34
2022-08-05T09:58:57.075Z,99149.63
2022-08-05T10:00:07.875Z,99144.38
2022-08-05T10:01:14.790Z,99158.00
2022-08-05T10:02:31.788Z,99143.66
2022-08-05T10:03:38.780Z,99149.31
2022-08-05T10:05:02.935Z,99152.13
2022-08-05T10:06:14.801Z,99153.53
2022-08-05T10:07:20.791Z,99163.75
2022-08-05T10:08:42.456Z,99160.31
2022-08-05T10:10:14.250Z,99156.09
2022-08-05T10:11:18.330Z,99155.88
2022-08-05T10:12:33.443Z,99162.34
2022-08-05T10:13:44.086Z,99160.06
2022-08-05T10:14:50.697Z,99161.47
2022-08-05T10:15:58.333Z,99153.97
2022-08-05T10:17:37.815Z,99158.81
2022-08-05T10:18:37.942Z,99154.84
2022-08-05T10:20:03.884Z,99151.22
2022-08-05T10:21:11.931Z,99155.31
2022-08-05T10:22:29.839Z,99147.81
2022-08-05T10:23:59.220Z,99164.13
2022-08-05T10:24:58.561Z,99151.53
2022-08-05T10:26:13.962Z,99149.91
2022-08-05T10:27:18.018Z,99152.66
2022-08-05T10:28:30.634Z,99159.19
2022-08-05T10:30:06.676Z,99156.31
2022-08-05T10:32:50.751Z,99163.41
2022-08-05T10:32:52.277Z,99159.44
2022-08-05T10:33:46.150Z,99155.34
2022-08-05T10:35:00.855Z,99153.34
2022-08-05T10:36:05.083Z,99159.44
2022-08-05T10:37:07.969Z,99149.78
2022-08-05T10:38:11.742Z,99141.63
2022-08-05T10:40:03.116Z,99150.34
2022-08-05T10:41:06.578Z,99149.88
2022-08-05T10:42:22.824Z,99157.06
2022-08-05T10:44:05.062Z,99151.56
2022-08-05T10:45:21.580Z,99147.06
2022-08-05T10:47:26.844Z,99136.81
2022-08-05T10:48:57.449Z,99137.47
2022-08-05T10:50:32.108Z,99137.81
2022-08-05T10:51:28.926Z,99145.34
2022-08-05T10:52:58.504Z,99148.50
2022-08-05T10:54:22.975Z,99143.59
2022-08-05T10:55:27.571Z,99148.44
2022-08-05T10:56:36.455Z,99154.09
2022-08-05T10:57:41.540Z,99161.75
2022-08-05T10:59:12.094Z,99153.31
2022-08-05T11:00:29.864Z,99152.31
2022-08-05T11:01:55.522Z,99155.41
2022-08-05T11:03:24.397Z,99168.75
2022-08-05T11:04:31.013Z,99160.88
2022-08-05T11:05:35.128Z,99160.84
2022-08-05T11:07:19.044Z,99165.75
2022-08-05T11:08:37.271Z,99167.09
2022-08-05T11:10:04.078Z,99167.53
2022-08-05T11:11:44.647Z,99164.78
2022-08-05T11:12:59.124Z,99169.97
2022-08-05T11:14:04.281Z,99166.38
2022-08-05T11:15:19.300Z,99168.28
2022-08-05T11:16:33.914Z,99170.06
2022-08-05T11:17:58.882Z,99164.16
2022-08-05T11:20:17.643Z,99174.81
2022-08-05T11:20:52.722Z,99159.91
2022-08-05T11:21:56.543Z,99167.97
2022-08-05T11:23:20.411Z,99170.53
2022-08-05T11:24:30.014Z,99169.19
2022-08-05T11:26:04.215Z,99175.44
2022-08-05T11:27:29.337Z,99178.28
2022-08-05T11:28:53.749Z,99176.50
2022-08-05T11:30:02.842Z,99172.72
2022-08-05T11:31:07.877Z,99174.59
2022-08-05T11:32:29.458Z,99178.94
2022-08-05T11:33:46.527Z,99174.41
2022-08-05T11:34:54.126Z,99173.00
2022-08-05T11:36:07.680Z,99167.78
2022-08-05T11:38:28.240Z,99166.84
2022-08-05T11:38:46.061Z,99170.69
2022-08-05T11:39:55.239Z,99167.53
2022-08-05T11:41:35.621Z,99172.63
2022-08-05T11:42:37.834Z,99170.41
2022-08-05T11:44:07.039Z,99182.19
2022-08-05T11:45:23.327Z,99170.66
2022-08-05T11:46:35.398Z,99180.63
2022-08-05T11:47:49.999Z,99173.84
2022-08-05T11:48:53.644Z,99176.00
2022-08-05T11:49:57.970Z,99176.72
2022-08-05T11:51:01.517Z,99178.66
2022-08-05T11:52:11.502Z,99175.13
2022-08-05T11:53:14.358Z,99171.09
2022-08-05T11:54:33.321Z,99179.19
2022-08-05T11:55:36.789Z,99170.16
2022-08-05T11:56:50.295Z,99176.63
2022-08-05T11:58:09.742Z,99179.53
2022-08-05T11:59:21.221Z,99171.75
2022-08-05T12:00:30.761Z,99173.50
2022-08-05T12:01:33.120Z,99175.56
2022-08-05T12:02:36.348Z,99173.25
2022-08-05T12:03:55.772Z,99169.78
2022-08-05T12:05:00.407Z,99170.69
2022-08-05T12:06:06.521Z,99169.63
2022-08-05T12:07:17.478Z,99177.69
2022-08-05T12:08:49.827Z,99171.94
2022-08-05T12:09:55.136Z,99171.03
2022-08-05T12:11:03.440Z,99172.78
2022-08-05T12:12:09.322Z,99165.94
2022-08-05T12:13:16.659Z,99166.78
2022-08-05T12:14:21.364Z,99166.94
2022-08-05T12:15:38.319Z,99166.19
2022-08-05T12:16:45.156Z,99165.44
2022-08-05T12:18:03.110Z,99172.47
2022-08-05T12:19:09.910Z,99184.28
2022-08-05T12:20:33.940Z,99174.06
2022-08-05T12:21:43.614Z,99174.91
2022-08-05T12:22:48.299Z,99172.56
2022-08-05T12:24:05.056Z,99169.75
2022-08-05T12:25:09.618Z,99168.59
2022-08-05T12:26:16.586Z,99165.41
2022-08-05T12:27:25.482Z,99153.00
2022-08-05T12:28:37.614Z,99163.97
2022-08-05T12:29:40.284Z,99174.06
2022-08-05T12:30:46.074Z,99171.66
2022-08-05T12:31:54.488Z,99163.31
2022-08-05T12:32:58.682Z,99160.00
2022-08-05T12:34:20.283Z,99156.00
2022-08-05T12:35:24.523Z,99161.00
2022-08-05T12:36:40.267Z,99164.03
2022-08-05T12:37:46.855Z,99165.84
2022-08-05T12:38:50.874Z,99166.50
2022-08-05T12:39:53.904Z,99163.38
2022-08-05T12:40:57.249Z,99164.28
2022-08-05T12:42:00.119Z,99160.13
2022-08-05T12:43:02.510Z,99162.56
2022-08-05T12:44:14.052Z,99159.09
2022-08-05T12:45:18.515Z,99167.25
2022-08-05T12:46:32.304Z,99162.81
2022-08-05T12:47:35.579Z,99162.16
2022-08-05T12:48:40.789Z,99169.81
2022-08-05T12:50:04.097Z,99167.31
2022-08-05T12:52:11.158Z,99180.22
2022-08-05T12:52:39.190Z,99185.19
2022-08-05T12:53:55.619Z,99182.28
2022-08-05T12:54:58.268Z,99186.69
2022-08-05T12:56:01.325Z,99176.41
2022-08-05T12:57:09.334Z,99179.34
2022-08-05T12:58:48.267Z,99187.28
2022-08-05T13:01:57.348Z,99179.72
2022-08-05T13:02:02.287Z,99187.72
2022-08-05T13:02:40.221Z,99190.44
2022-08-05T13:03:48.696Z,99184.34
2022-08-05T13:04:54.861Z,99175.06
2022-08-05T13:05:58.343Z,99178.13
2022-08-05T13:07:03.095Z,99170.84
2022-08-05T13:08:17.085Z,99181.38
2022-08-05T13:09:28.297Z,99179.41
2022-08-05T13:10:33.007Z,99181.31
2022-08-05T13:12:03.100Z,99179.50
2022-08-05T13:13:02.741Z,99179.78
2022-08-05T13:14:15.759Z,99179.38
2022-08-05T13:15:24.326Z,99181.56
2022-08-05T13:16:27.939Z,99186.91
2022-08-05T13:17:41.774Z,99190.41
2022-08-05T13:18:52.247Z,99187.25
2022-08-05T13:20:23.226Z,99183.69
2022-08-05T13:21:28.178Z,99192.75
2022-08-05T13:22:45.603Z,99179.75
2022-08-05T13:23:50.745Z,99198.78
2022-08-05T13:24:57.899Z,99190.84
2022-08-05T13:26:03.561Z,99195.03
2022-08-05T13:27:05.951Z,99193.56
2022-08-05T13:28:14.293Z,99196.66
2022-08-05T13:29:18.967Z,99187.91
2022-08-05T13:30:42.388Z,99182.84
2022-08-05T13:32:04.047Z,99187.22
2022-08-05T13:33:07.407Z,99197.69
2022-08-05T13:34:24.080Z,99182.09
2022-08-05T13:35:43.388Z,99193.34
2022-08-05T13:36:50.798Z,99190.94
2022-08-05T13:37:55.690Z,99197.13
2022-08-05T13:38:58.299Z,99198.72
2022-08-05T13:40:15.905Z,99187.97
2022-08-05T13:41:23.854Z,99194.25
2022-08-05T13:42:39.376Z,99193.63
2022-08-05T13:43:54.610Z,99192.81
2022-08-05T13:44:57.730Z,99188.09
2022-08-05T13:46:01.293Z,99189.59
2022-08-05T13:47:08.378Z,99186.75
2022-08-05T13:48:57.933Z,99195.78
2022-08-05T13:49:35.442Z,99185.50
2022-08-05T13:50:37.929Z,99188.88
2022-08-05T13:51:46.629Z,99192.47
2022-08-05T13:52:49.865Z,99178.72
2022-08-05T13:53:52.469Z,99190.09
2022-08-05T13:55:01.161Z,99196.56
2022-08-05T13:56:04.586Z,99199.19
2022-08-05T13:57:21.504Z,99198.22
2022-08-05T13:58:30.760Z,99201.63